createdAt,value
2023-04-13T00:01:27.546Z,7.90
2023-04-13T00:03:54.901Z,7.80
2023-04-13T00:06:22.821Z,7.80
2023-04-13T00:08:50.383Z,7.70
2023-04-13T00:11:17.839Z,7.70
2023-04-13T00:13:47.471Z,7.70
2023-04-13T00:16:16.746Z,7.70
2023-04-13T00:18:43.942Z,7.60
2023-04-13T00:21:12.016Z,7.60
2023-04-13T00:23:39.490Z,7.50
2023-04-13T00:26:07.018Z,7.50
2023-04-13T00:28:34.433Z,7.50
2023-04-13T00:31:03.021Z,7.40
2023-04-13T00:33:32.630Z,7.50
2023-04-13T00:36:00.485Z,7.40
2023-04-13T00:38:29.794Z,7.40
2023-04-13T00:40:57.403Z,7.40
2023-04-13T00:43:25.206Z,7.30
2023-04-13T00:45:52.762Z,7.30
2023-04-13T00:48:20.772Z,7.30
2023-04-13T00:50:48.328Z,7.20
2023-04-13T00:53:16.412Z,7.20
2023-04-13T00:55:45.076Z,7.20
2023-04-13T00:58:13.445Z,7.20
2023-04-13T01:00:42.800Z,7.20
2023-04-13T01:03:10.271Z,7.10
2023-04-13T01:06:13.792Z,7.10
2023-04-13T01:09:06.805Z,7.10
2023-04-13T01:12:16.364Z,7.10
2023-04-13T01:14:58.758Z,7.00
2023-04-13T01:17:31.014Z,7.00
2023-04-13T01:20:14.154Z,7.00
2023-04-13T01:22:50.771Z,6.90
2023-04-13T01:25:25.829Z,6.90
2023-04-13T01:28:07.599Z,6.90
2023-04-13T01:30:37.737Z,6.90
2023-04-13T01:33:07.362Z,6.90
2023-04-13T01:35:38.151Z,6.90
2023-04-13T01:38:07.514Z,6.80
2023-04-13T01:40:40.629Z,6.80
2023-04-13T01:43:08.821Z,6.80
2023-04-13T01:46:06.055Z,6.80
2023-04-13T01:48:48.689Z,6.80
2023-04-13T01:51:32.323Z,6.80
2023-04-13T01:54:14.719Z,6.70
2023-04-13T01:56:45.455Z,6.70
2023-04-13T01:59:13.701Z,6.70
2023-04-13T02:01:43.115Z,6.70
2023-04-13T02:04:10.763Z,6.60
2023-04-13T02:06:40.992Z,6.60
2023-04-13T02:09:09.907Z,6.50
2023-04-13T02:11:38.160Z,6.60
2023-04-13T02:14:06.949Z,6.50
2023-04-13T02:16:35.190Z,6.60
2023-04-13T02:19:02.939Z,6.50
2023-04-13T02:21:30.883Z,6.50
2023-04-13T02:23:58.474Z,6.50
2023-04-13T02:26:26.462Z,6.50
2023-04-13T02:28:54.047Z,6.50
2023-04-13T02:31:23.356Z,6.40
2023-04-13T02:33:51.857Z,6.40
2023-04-13T02:36:20.137Z,6.40
2023-04-13T02:38:54.658Z,6.40
2023-04-13T02:41:30.164Z,6.40
2023-04-13T02:43:58.355Z,6.30
2023-04-13T02:46:30.031Z,6.30
2023-04-13T02:49:06.215Z,6.30
2023-04-13T02:51:42.176Z,6.20
2023-04-13T02:54:11.928Z,6.20
2023-04-13T02:56:44.751Z,6.20
2023-04-13T02:59:12.878Z,6.20
2023-04-13T03:01:42.099Z,6.20
2023-04-13T03:04:12.473Z,6.20
2023-04-13T03:06:39.550Z,6.10
2023-04-13T03:09:06.928Z,6.10
2023-04-13T03:11:42.435Z,6.10
2023-04-13T03:14:21.304Z,6.10
2023-04-13T03:16:52.743Z,6.00
2023-04-13T03:19:25.745Z,6.10
2023-04-13T03:21:52.983Z,6.00
2023-04-13T03:24:27.699Z,6.00
2023-04-13T03:26:58.353Z,6.00
2023-04-13T03:29:32.864Z,6.00
2023-04-13T03:32:00.438Z,6.00
2023-04-13T03:34:31.781Z,6.00
2023-04-13T03:37:02.342Z,6.00
2023-04-13T03:39:30.106Z,6.00
2023-04-13T03:41:58.212Z,6.00
2023-04-13T03:44:26.694Z,6.00
2023-04-13T03:46:54.190Z,5.90
2023-04-13T03:49:27.210Z,6.00
2023-04-13T03:51:54.494Z,5.90
2023-04-13T03:54:22.770Z,6.00
2023-04-13T03:56:51.846Z,5.90
2023-04-13T03:59:19.212Z,6.00
2023-04-13T04:01:47.586Z,5.90
2023-04-13T04:04:15.171Z,5.90
2023-04-13T04:06:43.064Z,5.90
2023-04-13T04:09:16.502Z,5.90
2023-04-13T04:11:47.674Z,5.90
2023-04-13T04:14:20.778Z,5.90
2023-04-13T04:16:54.095Z,5.90
2023-04-13T04:19:23.025Z,5.90
2023-04-13T04:21:52.842Z,5.80
2023-04-13T04:24:22.389Z,5.90
2023-04-13T04:26:55.052Z,5.90
2023-04-13T04:29:34.052Z,5.90
2023-04-13T04:32:10.741Z,5.90
2023-04-13T04:34:40.905Z,5.90
2023-04-13T04:37:19.595Z,5.90
2023-04-13T04:39:54.801Z,5.90
2023-04-13T04:42:22.431Z,5.90
2023-04-13T04:44:50.320Z,5.90
2023-04-13T04:47:25.394Z,5.90
2023-04-13T04:50:14.362Z,5.90
2023-04-13T04:52:44.438Z,6.00
2023-04-13T04:55:15.291Z,5.90
2023-04-13T04:57:43.836Z,6.00
2023-04-13T05:00:17.108Z,6.00
2023-04-13T05:03:03.237Z,6.00
2023-04-13T05:05:31.212Z,6.00
2023-04-13T05:08:05.052Z,6.00
2023-04-13T05:10:34.905Z,6.00
2023-04-13T05:13:07.854Z,6.10
2023-04-13T05:15:35.544Z,6.10
2023-04-13T05:18:05.943Z,6.10
2023-04-13T05:20:34.673Z,6.20
2023-04-13T05:23:06.459Z,6.20
2023-04-13T05:25:39.705Z,6.20
2023-04-13T05:28:14.823Z,6.20
2023-04-13T05:30:42.799Z,6.30
2023-04-13T05:33:11.605Z,6.30
2023-04-13T05:35:40.466Z,6.40
2023-04-13T05:38:09.213Z,6.40
2023-04-13T05:40:36.919Z,6.50
2023-04-13T05:43:05.165Z,6.60
2023-04-13T05:45:36.468Z,6.60
2023-04-13T05:48:07.636Z,6.70
2023-04-13T05:50:35.020Z,6.80
2023-04-13T05:53:05.692Z,6.90
2023-04-13T05:55:45.164Z,7.00
2023-04-13T05:58:14.480Z,7.10
2023-04-13T06:00:43.120Z,7.20
2023-04-13T06:03:16.174Z,7.30
2023-04-13T06:05:44.745Z,7.30
2023-04-13T06:08:11.914Z,7.40
2023-04-13T06:10:39.804Z,7.50
2023-04-13T06:13:08.347Z,7.70
2023-04-13T06:15:38.677Z,7.80
2023-04-13T06:18:06.513Z,8.00
2023-04-13T06:20:34.837Z,8.30
2023-04-13T06:23:02.036Z,8.40
2023-04-13T06:25:31.368Z,8.50
2023-04-13T06:28:03.342Z,8.60
2023-04-13T06:30:34.366Z,8.70
2023-04-13T06:33:06.461Z,8.80
2023-04-13T06:35:34.038Z,9.00
2023-04-13T06:38:03.456Z,9.00
2023-04-13T06:40:46.558Z,9.10
2023-04-13T06:43:26.271Z,9.10
2023-04-13T06:46:14.503Z,9.20
2023-04-13T06:48:44.006Z,9.40
2023-04-13T06:51:12.630Z,9.50
2023-04-13T06:53:42.067Z,9.60
2023-04-13T06:56:09.515Z,9.70
2023-04-13T06:58:37.162Z,9.80
2023-04-13T07:01:07.042Z,9.90
2023-04-13T07:03:36.525Z,10.00
2023-04-13T07:06:06.288Z,10.10
2023-04-13T07:08:35.427Z,10.20
2023-04-13T07:11:02.921Z,10.40
2023-04-13T07:13:38.768Z,10.50
2023-04-13T07:16:09.251Z,10.60
2023-04-13T07:18:38.938Z,10.70
2023-04-13T07:21:07.239Z,10.90
2023-04-13T07:23:57.334Z,11.00
2023-04-13T07:26:24.976Z,11.20
2023-04-13T07:28:52.177Z,11.30
2023-04-13T07:31:22.647Z,11.50
2023-04-13T07:33:52.798Z,11.60
2023-04-13T07:36:26.425Z,11.80
2023-04-13T07:38:56.897Z,11.90
2023-04-13T07:41:24.567Z,12.10
2023-04-13T07:43:57.059Z,12.30
2023-04-13T07:46:27.056Z,12.40
2023-04-13T07:48:55.389Z,12.50
2023-04-13T07:51:27.599Z,12.70
2023-04-13T07:53:55.258Z,12.90
2023-04-13T07:56:26.069Z,13.00
2023-04-13T07:58:54.275Z,13.10
2023-04-13T08:01:22.020Z,13.30
2023-04-13T08:03:50.356Z,13.40
2023-04-13T08:06:23.230Z,13.60
2023-04-13T08:08:52.654Z,13.70
2023-04-13T08:11:20.372Z,13.90
2023-04-13T08:13:51.917Z,14.10
2023-04-13T08:16:19.668Z,14.30
2023-04-13T08:18:47.229Z,14.40
2023-04-13T08:21:17.613Z,14.60
2023-04-13T08:23:47.019Z,14.80
2023-04-13T08:26:20.535Z,14.90
2023-04-13T08:28:49.137Z,15.10
2023-04-13T08:31:17.238Z,15.20
2023-04-13T08:33:51.595Z,15.40
2023-04-13T08:36:19.040Z,15.50
2023-04-13T08:38:51.175Z,15.70
2023-04-13T08:41:21.697Z,15.90
2023-04-13T08:43:51.756Z,16.00
2023-04-13T08:46:23.416Z,16.10
2023-04-13T08:48:56.647Z,16.30
2023-04-13T08:51:32.589Z,16.50
2023-04-13T08:54:00.205Z,16.70
2023-04-13T08:56:45.477Z,17.00
2023-04-13T08:59:20.660Z,17.30
2023-04-13T09:01:50.970Z,17.50
2023-04-13T09:04:24.114Z,17.80
2023-04-13T09:06:59.892Z,17.90
2023-04-13T09:09:29.709Z,18.10
2023-04-13T09:11:57.077Z,18.30
2023-04-13T09:14:25.172Z,18.60
2023-04-13T09:16:53.676Z,18.80
2023-04-13T09:19:32.422Z,19.10
2023-04-13T09:22:16.206Z,19.30
2023-04-13T09:24:43.832Z,19.60
2023-04-13T09:27:24.292Z,20.00
2023-04-13T09:29:54.360Z,20.00
2023-04-13T09:32:29.078Z,19.90
2023-04-13T09:35:04.937Z,20.10
2023-04-13T09:37:32.957Z,20.30
2023-04-13T09:40:14.396Z,20.60
2023-04-13T09:42:59.441Z,21.10
2023-04-13T09:45:45.893Z,21.10
2023-04-13T09:48:23.076Z,21.10
2023-04-13T09:51:05.521Z,21.20
2023-04-13T09:53:50.094Z,21.40
2023-04-13T09:56:17.461Z,21.70
2023-04-13T09:58:48.749Z,21.60
2023-04-13T10:01:15.938Z,21.30
2023-04-13T10:03:44.256Z,21.30
2023-04-13T10:06:11.640Z,21.40
2023-04-13T10:08:41.607Z,21.40
2023-04-13T10:11:14.376Z,21.40
2023-04-13T10:13:53.443Z,21.40
2023-04-13T10:16:42.131Z,21.50
2023-04-13T10:19:18.285Z,21.60
2023-04-13T10:21:51.792Z,21.50
2023-04-13T10:24:21.385Z,21.40
2023-04-13T10:26:53.995Z,21.40
2023-04-13T10:29:29.493Z,21.60
2023-04-13T10:32:05.394Z,21.80
2023-04-13T10:34:36.572Z,22.00
2023-04-13T10:37:06.142Z,22.10
2023-04-13T10:39:36.109Z,22.10
2023-04-13T10:42:07.673Z,22.20
2023-04-13T10:44:48.298Z,22.20
2023-04-13T10:47:23.594Z,22.30
2023-04-13T10:49:52.197Z,22.30
2023-04-13T10:52:19.405Z,22.20
2023-04-13T10:54:47.191Z,22.20
2023-04-13T10:57:16.588Z,22.20
2023-04-13T10:59:57.167Z,22.20
2023-04-13T11:02:34.336Z,22.10
2023-04-13T11:05:02.418Z,22.20
2023-04-13T11:07:29.961Z,22.40
2023-04-13T11:10:03.954Z,22.60
2023-04-13T11:12:31.637Z,22.70
2023-04-13T11:14:59.511Z,22.80
2023-04-13T11:17:27.304Z,23.20
2023-04-13T11:19:57.032Z,23.50
2023-04-13T11:22:28.656Z,23.80
2023-04-13T11:25:09.823Z,24.00
2023-04-13T11:27:39.132Z,24.00
2023-04-13T11:30:09.344Z,24.00
2023-04-13T11:32:41.516Z,24.00
2023-04-13T11:35:11.130Z,24.20
2023-04-13T11:37:44.580Z,24.50
2023-04-13T11:40:17.166Z,24.90
2023-04-13T11:42:47.405Z,25.10
2023-04-13T11:45:16.339Z,25.00
2023-04-13T11:47:47.888Z,24.90
2023-04-13T11:50:17.556Z,25.00
2023-04-13T11:52:47.060Z,24.90
2023-04-13T11:55:23.081Z,24.90
2023-04-13T11:57:53.640Z,25.00
2023-04-13T12:00:27.389Z,25.00
2023-04-13T12:03:02.626Z,25.20
2023-04-13T12:05:32.988Z,25.30
2023-04-13T12:08:04.281Z,25.40
2023-04-13T12:16:05.278Z,26.20
2023-04-13T12:18:46.326Z,26.40
2023-04-13T12:21:20.870Z,25.90
2023-04-13T12:23:58.842Z,25.50
2023-04-13T12:29:08.910Z,25.80
2023-04-13T12:31:39.271Z,26.70
2023-04-13T12:34:10.676Z,27.50
2023-04-13T12:36:38.031Z,27.80
2023-04-13T12:39:06.582Z,28.00
2023-04-13T12:41:34.198Z,28.00
2023-04-13T12:44:03.338Z,27.60
2023-04-13T12:46:32.363Z,27.10
2023-04-13T12:48:59.958Z,26.70
2023-04-13T12:51:27.508Z,27.00
2023-04-13T12:53:54.621Z,27.20
2023-04-13T12:56:22.325Z,27.30
2023-04-13T12:58:49.578Z,27.10
2023-04-13T13:01:17.280Z,26.80
2023-04-13T13:03:45.954Z,26.40
2023-04-13T13:06:13.496Z,25.90
2023-04-13T13:08:40.798Z,25.50
2023-04-13T13:11:08.553Z,25.30
2023-04-13T13:13:36.021Z,25.20
2023-04-13T13:16:05.448Z,25.10
2023-04-13T13:18:42.728Z,25.10
2023-04-13T13:21:14.486Z,25.10
2023-04-13T13:23:41.491Z,25.00
2023-04-13T13:26:22.963Z,24.90
2023-04-13T13:28:52.359Z,24.70
2023-04-13T13:31:20.271Z,24.60
2023-04-13T13:33:47.497Z,24.70
2023-04-13T13:36:15.448Z,24.60
2023-04-13T13:38:43.648Z,24.50
2023-04-13T13:41:11.525Z,24.40
2023-04-13T13:43:39.777Z,24.30
2023-04-13T13:46:07.356Z,24.10
2023-04-13T13:48:38.838Z,23.90
2023-04-13T13:51:32.501Z,23.60
2023-04-13T13:54:01.000Z,23.50
2023-04-13T13:56:28.499Z,23.50
2023-04-13T13:58:55.604Z,23.40
2023-04-13T14:01:23.120Z,23.30
2023-04-13T14:03:50.581Z,23.20
2023-04-13T14:06:17.990Z,23.20
2023-04-13T14:08:45.560Z,23.10
2023-04-13T14:11:13.047Z,23.00
2023-04-13T14:13:40.203Z,22.90
2023-04-13T14:16:08.014Z,22.90
2023-04-13T14:18:35.656Z,22.80
2023-04-13T14:21:04.415Z,22.80
2023-04-13T14:23:32.577Z,22.70
2023-04-13T14:25:59.933Z,22.60
2023-04-13T14:28:27.409Z,22.50
2023-04-13T14:30:54.845Z,22.50
2023-04-13T14:33:22.652Z,22.40
2023-04-13T14:35:50.344Z,22.30
2023-04-13T14:38:17.490Z,22.20
2023-04-13T14:40:45.154Z,21.50
2023-04-13T14:43:12.672Z,20.90
2023-04-13T14:45:40.078Z,20.70
2023-04-13T14:48:07.233Z,20.40
2023-04-13T14:50:39.173Z,20.00
2023-04-13T14:53:09.393Z,19.70
2023-04-13T14:55:36.793Z,19.40
2023-04-13T14:58:06.192Z,19.30
2023-04-13T15:00:39.776Z,19.10
2023-04-13T15:03:12.419Z,18.80
2023-04-13T15:05:47.662Z,18.70
2023-04-13T15:08:16.748Z,18.80
2023-04-13T15:10:44.308Z,18.50
2023-04-13T15:13:11.715Z,18.20
2023-04-13T15:15:40.487Z,18.10
2023-04-13T15:18:08.465Z,18.00
2023-04-13T15:20:35.942Z,17.90
2023-04-13T15:23:05.357Z,17.90
2023-04-13T15:25:32.820Z,18.00
2023-04-13T15:28:00.083Z,17.80
2023-04-13T15:30:30.371Z,17.70
2023-04-13T15:33:02.323Z,17.40
2023-04-13T15:35:31.160Z,17.40
2023-04-13T15:38:02.330Z,17.40
2023-04-13T15:40:35.526Z,17.20
2023-04-13T15:43:04.348Z,17.10
2023-04-13T15:45:32.561Z,17.00
2023-04-13T15:48:01.450Z,16.90
2023-04-13T15:50:28.890Z,16.90
2023-04-13T15:52:57.033Z,17.10
2023-04-13T15:55:24.816Z,16.90
2023-04-13T15:57:53.645Z,16.80
2023-04-13T16:00:21.582Z,16.60
2023-04-13T16:02:49.149Z,16.60
2023-04-13T16:05:18.222Z,16.60
2023-04-13T16:07:45.458Z,16.50
2023-04-13T16:10:16.617Z,16.40
2023-04-13T16:12:45.284Z,16.30
2023-04-13T16:15:13.199Z,16.30
2023-04-13T16:17:43.772Z,16.30
2023-04-13T16:20:14.856Z,16.40
2023-04-13T16:22:46.928Z,16.40
2023-04-13T16:25:15.430Z,16.40
2023-04-13T16:27:43.084Z,16.30
2023-04-13T16:30:15.516Z,16.20
2023-04-13T16:32:47.030Z,16.10
2023-04-13T16:35:14.646Z,16.10
2023-04-13T16:37:42.894Z,16.00
2023-04-13T16:40:11.658Z,16.00
2023-04-13T16:42:40.543Z,15.90
2023-04-13T16:45:12.912Z,15.90
2023-04-13T16:47:42.005Z,15.80
2023-04-13T16:50:11.937Z,15.80
2023-04-13T16:52:39.873Z,15.80
2023-04-13T16:55:13.821Z,15.80
2023-04-13T16:57:43.323Z,15.70
2023-04-13T17:00:12.201Z,15.70
2023-04-13T17:02:41.913Z,15.60
2023-04-13T17:05:12.412Z,15.50
2023-04-13T17:07:44.075Z,15.50
2023-04-13T17:10:13.486Z,15.50
2023-04-13T17:12:41.066Z,15.50
2023-04-13T17:15:10.045Z,15.40
2023-04-13T17:17:38.162Z,15.30
2023-04-13T17:20:08.384Z,15.20
2023-04-13T17:22:35.672Z,15.20
2023-04-13T17:25:04.131Z,15.10
2023-04-13T17:27:31.360Z,15.10
2023-04-13T17:29:58.796Z,15.00
2023-04-13T17:32:27.240Z,15.00
2023-04-13T17:34:56.895Z,15.00
2023-04-13T17:37:24.306Z,14.90
2023-04-13T17:39:52.007Z,14.90
2023-04-13T17:42:19.312Z,14.80
2023-04-13T17:44:47.165Z,14.70
2023-04-13T17:47:14.643Z,14.60
2023-04-13T17:49:42.677Z,14.60
2023-04-13T17:52:09.771Z,14.40
2023-04-13T17:54:39.272Z,14.40
2023-04-13T17:57:07.310Z,14.30
2023-04-13T17:59:34.682Z,14.20
2023-04-13T18:02:05.132Z,14.30
2023-04-13T18:04:33.083Z,14.30
2023-04-13T18:10:11.918Z,14.20
2023-04-13T18:12:41.245Z,14.10
2023-04-13T18:15:09.482Z,14.20
2023-04-13T18:17:38.674Z,14.20
2023-04-13T18:20:07.019Z,14.20
2023-04-13T18:22:35.052Z,14.20
2023-04-13T18:25:06.435Z,14.20
2023-04-13T18:27:34.544Z,14.20
2023-04-13T18:30:02.897Z,14.10
2023-04-13T18:32:30.840Z,14.10
2023-04-13T18:34:58.085Z,14.10
2023-04-13T18:37:25.712Z,14.00
2023-04-13T18:39:54.494Z,14.00
2023-04-13T18:42:22.185Z,13.90
2023-04-13T18:44:49.244Z,13.90
2023-04-13T18:47:19.326Z,13.90
2023-04-13T18:49:48.365Z,13.90
2023-04-13T18:52:15.718Z,13.90
2023-04-13T18:54:43.465Z,13.90
2023-04-13T18:57:11.113Z,13.90
2023-04-13T18:59:39.082Z,13.90
2023-04-13T19:02:06.652Z,13.90
2023-04-13T19:04:35.315Z,13.90
2023-04-13T19:07:08.509Z,13.80
2023-04-13T19:09:39.425Z,13.80
2023-04-13T19:12:07.712Z,13.80
2023-04-13T19:14:35.244Z,13.70
2023-04-13T19:17:03.218Z,13.70
2023-04-13T19:19:30.779Z,13.70
2023-04-13T19:21:58.448Z,13.70
2023-04-13T19:24:26.474Z,13.60
2023-04-13T19:26:55.694Z,13.60
2023-04-13T19:29:26.781Z,13.60
2023-04-13T19:31:54.711Z,13.50
2023-04-13T19:34:22.294Z,13.50
2023-04-13T19:36:49.709Z,13.50
2023-04-13T19:39:17.215Z,13.50
2023-04-13T19:41:44.821Z,13.50
2023-04-13T19:44:14.339Z,13.50
2023-04-13T19:46:41.824Z,13.50
2023-04-13T19:49:10.292Z,13.50
2023-04-13T19:51:38.418Z,13.50
2023-04-13T19:54:06.052Z,13.50
2023-04-13T19:56:37.089Z,13.50
2023-04-13T19:59:07.904Z,13.50
2023-04-13T20:01:35.765Z,13.50
2023-04-13T20:04:05.588Z,13.50
2023-04-13T20:06:33.827Z,13.50
2023-04-13T20:09:13.182Z,13.50
2023-04-13T20:11:41.805Z,13.50
2023-04-13T20:14:11.514Z,13.50
2023-04-13T20:16:39.234Z,13.40
2023-04-13T20:19:09.549Z,13.40
2023-04-13T20:21:37.986Z,13.40
2023-04-13T20:24:05.300Z,13.40
2023-04-13T20:26:32.766Z,13.40
2023-04-13T20:29:02.828Z,13.30
2023-04-13T20:31:32.612Z,13.40
2023-04-13T20:33:59.870Z,13.30
2023-04-13T20:36:27.587Z,13.30
2023-04-13T20:39:02.048Z,13.30
2023-04-13T20:41:31.939Z,13.30
2023-04-13T20:44:00.213Z,13.20
2023-04-13T20:46:35.179Z,13.20
2023-04-13T20:49:06.696Z,13.20
2023-04-13T20:51:34.157Z,13.20
2023-04-13T20:54:02.651Z,13.20
2023-04-13T20:56:30.815Z,13.10
2023-04-13T20:58:58.338Z,13.20
2023-04-13T21:01:25.753Z,13.10
2023-04-13T21:03:53.336Z,13.10
2023-04-13T21:06:22.793Z,13.10
2023-04-13T21:08:50.083Z,13.10
2023-04-13T21:11:17.369Z,13.10
2023-04-13T21:13:44.445Z,13.10
2023-04-13T21:16:11.980Z,13.10
2023-04-13T21:18:41.478Z,13.10
2023-04-13T21:21:08.953Z,13.10
2023-04-13T21:23:37.348Z,13.00
2023-04-13T21:26:05.286Z,13.00
2023-04-13T21:28:32.448Z,13.00
2023-04-13T21:30:59.794Z,13.00
2023-04-13T21:33:26.908Z,13.00
2023-04-13T21:35:54.304Z,13.00
2023-04-13T21:38:21.335Z,13.00
2023-04-13T21:40:48.782Z,12.90
2023-04-13T21:43:16.870Z,12.90
2023-04-13T21:45:44.244Z,12.90
2023-04-13T21:48:11.328Z,12.90
2023-04-13T21:50:38.615Z,12.90
2023-04-13T21:53:06.017Z,12.90
2023-04-13T21:55:33.336Z,12.90
2023-04-13T21:58:00.349Z,12.90
2023-04-13T22:00:53.295Z,12.80
2023-04-13T22:03:20.563Z,12.80
2023-04-13T22:05:48.017Z,12.80
2023-04-13T22:08:15.084Z,12.80
2023-04-13T22:10:42.432Z,12.80
2023-04-13T22:13:09.553Z,12.80
2023-04-13T22:15:37.012Z,12.80
2023-04-13T22:18:04.434Z,12.70
2023-04-13T22:20:31.743Z,12.70
2023-04-13T22:22:58.821Z,12.70
2023-04-13T22:25:27.912Z,12.70
2023-04-13T22:27:55.291Z,12.70
2023-04-13T22:30:22.612Z,12.70
2023-04-13T22:32:49.766Z,12.60
2023-04-13T22:35:17.233Z,12.60
2023-04-13T22:37:44.319Z,12.60
2023-04-13T22:40:12.093Z,12.60
2023-04-13T22:42:39.328Z,12.60
2023-04-13T22:45:08.021Z,12.60
2023-04-13T22:47:35.365Z,12.50
2023-04-13T22:50:06.529Z,12.50
2023-04-13T22:52:33.604Z,12.50
2023-04-13T22:55:00.962Z,12.50
2023-04-13T22:57:28.100Z,12.50
2023-04-13T22:59:55.378Z,12.40
2023-04-13T23:02:22.741Z,12.40
2023-04-13T23:04:50.471Z,12.40
2023-04-13T23:07:17.612Z,12.40
2023-04-13T23:09:44.896Z,12.40
2023-04-13T23:12:11.983Z,12.40
2023-04-13T23:14:40.415Z,12.40
2023-04-13T23:17:07.487Z,12.40
2023-04-13T23:19:34.863Z,12.40
2023-04-13T23:22:02.938Z,12.40
2023-04-13T23:24:31.104Z,12.40
2023-04-13T23:26:58.196Z,12.30
2023-04-13T23:29:25.689Z,12.40
2023-04-13T23:31:57.074Z,12.30
2023-04-13T23:34:24.509Z,12.30
2023-04-13T23:36:51.752Z,12.30
2023-04-13T23:39:22.102Z,12.30
2023-04-13T23:41:49.256Z,12.30
2023-04-13T23:44:16.543Z,12.30
2023-04-13T23:46:43.794Z,12.30
2023-04-13T23:49:11.208Z,12.30
2023-04-13T23:51:38.557Z,12.20
2023-04-13T23:54:07.064Z,12.20
2023-04-13T23:56:34.768Z,12.20
2023-04-13T23:59:03.238Z,12.20
